(°C)
(°C)
-0°
-1°
-0°
-0°
SSZ
SSZ
SSZ
SZ
SZ
SZ
ZSZ
(km/h)
19-22
20-28
20-22
19-23
18-25
15-23
12-25
(mm)
0
0
0.9
0.8
0
0
0
(%)
53
53
72
80
62
46
25

Podizanje Sunca

/ -50.2°
sun-icon
UV 2
06:31
17:01
Opadajući mesec (233°)
19:34
11:17

METAR za 46.38°S 44.32°I (URWI)

Vreme Uslovi Temperatura/
Tačka rose
Vetar Vidljivost Prognoza Oblaci Pritisak Promena Neobrađeno
6°C / 4°C 350º 12kt 9000m - 1019 - URWI 242200Z AUTO 35006MPS 9000 // ///051/// 06/04 Q1019
6°C / 5°C 350º 14kt 9000m - 1019 - URWI 242130Z AUTO 35007MPS 9000 // ///045/// 06/05 Q1019
6°C / 4°C 350º 16kt >10km - 1019 - URWI 242100Z AUTO 35008MPS 9999 // ///044/// 06/04 Q1019
7°C / 3°C 350º 16kt >10km - 1019 - URWI 242030Z AUTO 35008MPS 9999 // ///044/// 07/03 Q1019
9°C / 3°C 350º 14kt >10km - 1019 - URWI 242000Z AUTO 35007MPS 9999 // ///043/// 09/03 Q1019
9°C / 3°C 360º 14kt >10km - 1019 - URWI 241930Z AUTO 36007MPS 9999 // ///052/// 09/03 Q1019
9°C / 4°C 340º 10kt >10km - 1019 - URWI 241900Z AUTO 34005MPS 9999 // ///046/// 09/04 Q1019
10°C / 4°C 350º 8kt >10km - 1019 - URWI 241830Z AUTO 35004MPS 9999 // ///048/// 10/04 Q1019
10°C / 4°C 350º 8kt >10km - 1018 - URWI 241800Z AUTO 35004MPS 9999 // ///048/// 10/04 Q1018
10°C / 4°C 340º 10kt >10km - 1018 - URWI 241730Z AUTO 34005MPS 9999 // ///047/// 10/04 Q1018
10°C / 5°C 330º 8kt >10km - 1018 - URWI 241700Z AUTO 33004MPS 9999 // ///044/// 10/05 Q1018
10°C / 5°C 330º 10kt >10km - 1019 - URWI 241630Z AUTO 33005MPS 9999 // ///044/// 10/05 Q1019
11°C / 5°C 330º 10kt >10km - 1019 - URWI 241600Z AUTO 33005MPS 9999 // ///043/// 11/05 Q1019
11°C / 6°C 330º 10kt >10km - 1018 - URWI 241530Z AUTO 33005MPS 9999 // ///041/// 11/06 Q1018
12°C / 7°C 330º 8kt >10km - 1018 - URWI 241500Z AUTO 33004MPS 9999 // ///040/// 12/07 Q1018
VFR 12°C / 7°C 310º 8kt >10km - Scattered Clouds 3700ft 1018 Temporary: Visibility 2000. Showers Rain . Scattered Clouds 300ft. Scattered Clouds 2000ft. Cumulonimbus . Runway 27: Damp, 51-100% contamination with <1mm, friction coefficient 0.60. URWI 241430Z 31004MPS 9999 SCT037CB 12/07 Q1018 R27/190060 TEMPO 2000 SHRA SCT003 SCT020CB
VFR 12°C / 7°C 340º 8kt >10km - Scattered Clouds 3400ft 1018 Temporary: Visibility 2000. Showers Rain . Scattered Clouds 300ft. Scattered Clouds 2000ft. Cumulonimbus . Runway 27: Damp, 51-100% contamination with <1mm, friction coefficient 0.60. URWI 241400Z 34004MPS 9999 SCT034CB 12/07 Q1018 R27/190060 TEMPO 2000 SHRA SCT003 SCT020CB
VFR 12°C / 7°C 350º 8kt >10km - Scattered Clouds 5900ft 1018 Temporary: Visibility 2000. Showers Rain . Scattered Clouds 300ft. Scattered Clouds 2000ft. Cumulonimbus . Runway 27: Damp, 51-100% contamination with <1mm, friction coefficient 0.60. URWI 241330Z 35004MPS 9999 SCT059CB 12/07 Q1018 R27/190060 TEMPO 2000 SHRA SCT003 SCT020CB
VFR 13°C / 7°C 360º 8kt >10km - Scattered Clouds 5900ft 1018 Temporary: Visibility 2000. Showers Rain . Scattered Clouds 300ft. Scattered Clouds 2000ft. Cumulonimbus . Runway 27: Damp, 51-100% contamination with <1mm, friction coefficient 0.60. URWI 241300Z 36004MPS 9999 SCT059CB 13/07 Q1018 R27/190060 TEMPO 2000 SHRA SCT003 SCT020CB
VFR 13°C / 7°C 350º 10kt >10km - Scattered Clouds 3700ft 1018 Temporary: Visibility 2000. Showers Rain . Scattered Clouds 300ft. Scattered Clouds 2000ft. Cumulonimbus . Runway 27: Damp, 51-100% contamination with <1mm, friction coefficient 0.60. URWI 241230Z 35005MPS 9999 SCT037CB 13/07 Q1018 R27/190060 TEMPO 2000 SHRA SCT003 SCT020CB
VFR 13°C / 7°C 340º 10kt >10km - Scattered Clouds 3100ft 1018 Temporary: Visibility 2000. Showers Rain . Scattered Clouds 300ft. Scattered Clouds 2000ft. Cumulonimbus . Runway 27: Damp, 51-100% contamination with <1mm, friction coefficient 0.60. URWI 241200Z 34005MPS 9999 SCT031CB 13/07 Q1018 R27/190060 TEMPO 2000 SHRA SCT003 SCT020CB
VFR 13°C / 7°C 340º 10kt >10km - Scattered Clouds 3400ft 1018 Temporary: Visibility 2000. Showers Rain . Scattered Clouds 300ft. Scattered Clouds 2000ft. Cumulonimbus . Runway 27: Damp, 51-100% contamination with <1mm, friction coefficient 0.60. URWI 241130Z 34005MPS 9999 SCT034CB 13/07 Q1018 R27/190060 TEMPO 2000 SHRA SCT003 SCT020CB
VFR 13°C / 7°C 350º 10kt >10km - Scattered Clouds 2400ft 1018 Temporary: Visibility 2000. Showers Rain . Scattered Clouds 300ft. Scattered Clouds 2000ft. Cumulonimbus . Runway 27: Damp, 51-100% contamination with <1mm, friction coefficient 0.60. URWI 241100Z 35005MPS 9999 SCT024CB 13/07 Q1018 R27/190060 TEMPO 2000 SHRA SCT003 SCT020CB
VFR 13°C / 6°C 340º 8kt >10km - Scattered Clouds 2500ft 1018 Temporary: Visibility 2000. Showers Rain . Scattered Clouds 300ft. Scattered Clouds 2000ft. Cumulonimbus . Runway 27: Damp, 51-100% contamination with <1mm, friction coefficient 0.60. URWI 241030Z 34004MPS 9999 SCT025CB 13/06 Q1018 R27/190060 TEMPO 2000 SHRA SCT003 SCT020CB

6°C / 4°C

[Više]
Vetar 350º 12kt
Vidljivost 9000m
Prognoza -
Oblaci
Pritisak 1019
Promena -
Neobrađeno URWI 242200Z AUTO 35006MPS 9000 // ///051/// 06/04 Q1019

6°C / 5°C

[Više]
Vetar 350º 14kt
Vidljivost 9000m
Prognoza -
Oblaci
Pritisak 1019
Promena -
Neobrađeno URWI 242130Z AUTO 35007MPS 9000 // ///045/// 06/05 Q1019

6°C / 4°C

[Više]
Vetar 350º 16kt
Vidljivost >10km
Prognoza -
Oblaci
Pritisak 1019
Promena -
Neobrađeno URWI 242100Z AUTO 35008MPS 9999 // ///044/// 06/04 Q1019

7°C / 3°C

[Više]
Vetar 350º 16kt
Vidljivost >10km
Prognoza -
Oblaci
Pritisak 1019
Promena -
Neobrađeno URWI 242030Z AUTO 35008MPS 9999 // ///044/// 07/03 Q1019

9°C / 3°C

[Više]
Vetar 350º 14kt
Vidljivost >10km
Prognoza -
Oblaci
Pritisak 1019
Promena -
Neobrađeno URWI 242000Z AUTO 35007MPS 9999 // ///043/// 09/03 Q1019

9°C / 3°C

[Više]
Vetar 360º 14kt
Vidljivost >10km
Prognoza -
Oblaci
Pritisak 1019
Promena -
Neobrađeno URWI 241930Z AUTO 36007MPS 9999 // ///052/// 09/03 Q1019

9°C / 4°C

[Više]
Vetar 340º 10kt
Vidljivost >10km
Prognoza -
Oblaci
Pritisak 1019
Promena -
Neobrađeno URWI 241900Z AUTO 34005MPS 9999 // ///046/// 09/04 Q1019

10°C / 4°C

[Više]
Vetar 350º 8kt
Vidljivost >10km
Prognoza -
Oblaci
Pritisak 1019
Promena -
Neobrađeno URWI 241830Z AUTO 35004MPS 9999 // ///048/// 10/04 Q1019

10°C / 4°C

[Više]
Vetar 350º 8kt
Vidljivost >10km
Prognoza -
Oblaci
Pritisak 1018
Promena -
Neobrađeno URWI 241800Z AUTO 35004MPS 9999 // ///048/// 10/04 Q1018

10°C / 4°C

[Više]
Vetar 340º 10kt
Vidljivost >10km
Prognoza -
Oblaci
Pritisak 1018
Promena -
Neobrađeno URWI 241730Z AUTO 34005MPS 9999 // ///047/// 10/04 Q1018

10°C / 5°C

[Više]
Vetar 330º 8kt
Vidljivost >10km
Prognoza -
Oblaci
Pritisak 1018
Promena -
Neobrađeno URWI 241700Z AUTO 33004MPS 9999 // ///044/// 10/05 Q1018

10°C / 5°C

[Više]
Vetar 330º 10kt
Vidljivost >10km
Prognoza -
Oblaci
Pritisak 1019
Promena -
Neobrađeno URWI 241630Z AUTO 33005MPS 9999 // ///044/// 10/05 Q1019

11°C / 5°C

[Više]
Vetar 330º 10kt
Vidljivost >10km
Prognoza -
Oblaci
Pritisak 1019
Promena -
Neobrađeno URWI 241600Z AUTO 33005MPS 9999 // ///043/// 11/05 Q1019

11°C / 6°C

[Više]
Vetar 330º 10kt
Vidljivost >10km
Prognoza -
Oblaci
Pritisak 1018
Promena -
Neobrađeno URWI 241530Z AUTO 33005MPS 9999 // ///041/// 11/06 Q1018

12°C / 7°C

[Više]
Vetar 330º 8kt
Vidljivost >10km
Prognoza -
Oblaci
Pritisak 1018
Promena -
Neobrađeno URWI 241500Z AUTO 33004MPS 9999 // ///040/// 12/07 Q1018

VFR

12°C / 7°C

[Više]
Vetar 310º 8kt
Vidljivost >10km
Prognoza -
Oblaci Scattered Clouds 3700ft
Pritisak 1018
Promena Temporary: Visibility 2000. Showers Rain . Scattered Clouds 300ft. Scattered Clouds 2000ft. Cumulonimbus . Runway 27: Damp, 51-100% contamination with <1mm, friction coefficient 0.60.
Neobrađeno URWI 241430Z 31004MPS 9999 SCT037CB 12/07 Q1018 R27/190060 TEMPO 2000 SHRA SCT003 SCT020CB

VFR

12°C / 7°C

[Više]
Vetar 340º 8kt
Vidljivost >10km
Prognoza -
Oblaci Scattered Clouds 3400ft
Pritisak 1018
Promena Temporary: Visibility 2000. Showers Rain . Scattered Clouds 300ft. Scattered Clouds 2000ft. Cumulonimbus . Runway 27: Damp, 51-100% contamination with <1mm, friction coefficient 0.60.
Neobrađeno URWI 241400Z 34004MPS 9999 SCT034CB 12/07 Q1018 R27/190060 TEMPO 2000 SHRA SCT003 SCT020CB

VFR

12°C / 7°C

[Više]
Vetar 350º 8kt
Vidljivost >10km
Prognoza -
Oblaci Scattered Clouds 5900ft
Pritisak 1018
Promena Temporary: Visibility 2000. Showers Rain . Scattered Clouds 300ft. Scattered Clouds 2000ft. Cumulonimbus . Runway 27: Damp, 51-100% contamination with <1mm, friction coefficient 0.60.
Neobrađeno URWI 241330Z 35004MPS 9999 SCT059CB 12/07 Q1018 R27/190060 TEMPO 2000 SHRA SCT003 SCT020CB

VFR

13°C / 7°C

[Više]
Vetar 360º 8kt
Vidljivost >10km
Prognoza -
Oblaci Scattered Clouds 5900ft
Pritisak 1018
Promena Temporary: Visibility 2000. Showers Rain . Scattered Clouds 300ft. Scattered Clouds 2000ft. Cumulonimbus . Runway 27: Damp, 51-100% contamination with <1mm, friction coefficient 0.60.
Neobrađeno URWI 241300Z 36004MPS 9999 SCT059CB 13/07 Q1018 R27/190060 TEMPO 2000 SHRA SCT003 SCT020CB

VFR

13°C / 7°C

[Više]
Vetar 350º 10kt
Vidljivost >10km
Prognoza -
Oblaci Scattered Clouds 3700ft
Pritisak 1018
Promena Temporary: Visibility 2000. Showers Rain . Scattered Clouds 300ft. Scattered Clouds 2000ft. Cumulonimbus . Runway 27: Damp, 51-100% contamination with <1mm, friction coefficient 0.60.
Neobrađeno URWI 241230Z 35005MPS 9999 SCT037CB 13/07 Q1018 R27/190060 TEMPO 2000 SHRA SCT003 SCT020CB

VFR

13°C / 7°C

[Više]
Vetar 340º 10kt
Vidljivost >10km
Prognoza -
Oblaci Scattered Clouds 3100ft
Pritisak 1018
Promena Temporary: Visibility 2000. Showers Rain . Scattered Clouds 300ft. Scattered Clouds 2000ft. Cumulonimbus . Runway 27: Damp, 51-100% contamination with <1mm, friction coefficient 0.60.
Neobrađeno URWI 241200Z 34005MPS 9999 SCT031CB 13/07 Q1018 R27/190060 TEMPO 2000 SHRA SCT003 SCT020CB

VFR

13°C / 7°C

[Više]
Vetar 340º 10kt
Vidljivost >10km
Prognoza -
Oblaci Scattered Clouds 3400ft
Pritisak 1018
Promena Temporary: Visibility 2000. Showers Rain . Scattered Clouds 300ft. Scattered Clouds 2000ft. Cumulonimbus . Runway 27: Damp, 51-100% contamination with <1mm, friction coefficient 0.60.
Neobrađeno URWI 241130Z 34005MPS 9999 SCT034CB 13/07 Q1018 R27/190060 TEMPO 2000 SHRA SCT003 SCT020CB

VFR

13°C / 7°C

[Više]
Vetar 350º 10kt
Vidljivost >10km
Prognoza -
Oblaci Scattered Clouds 2400ft
Pritisak 1018
Promena Temporary: Visibility 2000. Showers Rain . Scattered Clouds 300ft. Scattered Clouds 2000ft. Cumulonimbus . Runway 27: Damp, 51-100% contamination with <1mm, friction coefficient 0.60.
Neobrađeno URWI 241100Z 35005MPS 9999 SCT024CB 13/07 Q1018 R27/190060 TEMPO 2000 SHRA SCT003 SCT020CB

VFR

13°C / 6°C

[Više]
Vetar 340º 8kt
Vidljivost >10km
Prognoza -
Oblaci Scattered Clouds 2500ft
Pritisak 1018
Promena Temporary: Visibility 2000. Showers Rain . Scattered Clouds 300ft. Scattered Clouds 2000ft. Cumulonimbus . Runway 27: Damp, 51-100% contamination with <1mm, friction coefficient 0.60.
Neobrađeno URWI 241030Z 34004MPS 9999 SCT025CB 13/06 Q1018 R27/190060 TEMPO 2000 SHRA SCT003 SCT020CB

TAF za 46.38°S 44.32°I (URWI)

From till


From till Wind 360º 6kt. Gust 23kt. Visibility 10km or more. Scattered Clouds 2000ft.
Temporarly from till Visibility 6000m. Light Showers Rain . Scattered Clouds 1600ft. Broken Clouds 2000ft.
Becoming from till Wind 360º 16kt. Gust 29kt. Visibility 10km or more. Scattered Clouds 2000ft.

Neobrađeno: TAF URWI 241057Z 2412/2421 36003G12MPS 9999 SCT020CB TEMPO 2412/2421 6000 -SHRA SCT016 BKN020CB BECMG 2418/2420 36008G15MPS

Trenutni satelitski snimci i slike kiše za 46.38°S 44.32°I

Marker lokacije postavljen je na 46.38°S 44.32°I. [Više]

Satelitski snimci u realnom vremenu kombinuju vidljivu svetlost tokom dana sa infracrvenim zračenjem tokom noći. Noću slika nije tamna jer infracrveno zračenje može otkriti temperaturne razlike. Nažalost, niski oblaci i magla teško se mogu razlikovati od temperature zemlje tako da mogu biti skoro nevidljivi tokom noći. Meteosat satelitski snimci za Evropu se ažuriraju u realnom vremenu na svakih 5 minuta. Slnimci GOES-16/GOES-17 (Severna i Južna Amerika) and Himawari (Azia) ažuriraju se na svakih 10 minuta.

Autorsko pravo 2021 EUMETSAT / meteoblue. / Autorsko pravo 2021 meteoblue

Radar i padavine kratka prognoza za 46.38°S 44.32°I

Rominjati
Svjetlo
Umjereno
Teška
Vrlo teško
Zdravo

Marker lokacije postavljen je na 46.38°S 44.32°I. Ova animacija prikazuje radar padavina za poslednji sat, kao i 1h prognozu. Пљусак кише или слаб снег може бити невидљив за радар. Интензитет падавина је кодиран у боји, у распону од светло плаве до наранџасте.